sensor_id;sensor_type;location;lat;lon;timestamp;pressure;altitude;pressure_sealevel;temperature
64470;BMP280;50854;48.538;14.352;2022-08-21T01:45:15;93455.16;;;15.50
64470;BMP280;50854;48.538;14.352;2022-08-21T01:46:16;93456.59;;;15.51
64470;BMP280;50854;48.538;14.352;2022-08-21T01:47:16;93457.88;;;15.50
64470;BMP280;50854;48.538;14.352;2022-08-21T01:48:17;93449.56;;;15.48
64470;BMP280;50854;48.538;14.352;2022-08-21T01:49:17;93446.84;;;15.48
64470;BMP280;50854;48.538;14.352;2022-08-21T01:50:18;93448.47;;;15.44
64470;BMP280;50854;48.538;14.352;2022-08-21T01:51:19;93454.44;;;15.50
64470;BMP280;50854;48.538;14.352;2022-08-21T01:52:19;93450.25;;;15.49
64470;BMP280;50854;48.538;14.352;2022-08-21T01:53:20;93452.97;;;15.49
64470;BMP280;50854;48.538;14.352;2022-08-21T01:54:20;93447.38;;;15.47
64470;BMP280;50854;48.538;14.352;2022-08-21T01:55:21;93452.50;;;15.43
64470;BMP280;50854;48.538;14.352;2022-08-21T01:56:21;93452.97;;;15.49
64470;BMP280;50854;48.538;14.352;2022-08-21T01:57:22;93457.16;;;15.50
64470;BMP280;50854;48.538;14.352;2022-08-21T01:58:23;93447.38;;;15.47
64470;BMP280;50854;48.538;14.352;2022-08-21T01:59:23;93453.38;;;15.45
64470;BMP280;50854;48.538;14.352;2022-08-21T02:00:24;93450.03;;;15.37
64470;BMP280;50854;48.538;14.352;2022-08-21T02:01:24;93458.72;;;15.36
64470;BMP280;50854;48.538;14.352;2022-08-21T02:02:24;93451.84;;;15.35
64470;BMP280;50854;48.538;14.352;2022-08-21T02:03:25;93448.56;;;15.36
64470;BMP280;50854;48.538;14.352;2022-08-21T02:04:25;93446.78;;;15.31
64470;BMP280;50854;48.538;14.352;2022-08-21T02:05:25;93443.66;;;15.35
64470;BMP280;50854;48.538;14.352;2022-08-21T02:06:26;93450.72;;;15.38
64470;BMP280;50854;48.538;14.352;2022-08-21T02:07:26;93452.00;;;15.37
64470;BMP280;50854;48.538;14.352;2022-08-21T02:08:27;93450.94;;;15.32
64470;BMP280;50854;48.538;14.352;2022-08-21T02:09:27;93447.72;;;15.26
64470;BMP280;50854;48.538;14.352;2022-08-21T02:10:30;93441.28;;;15.14
64470;BMP280;50854;48.538;14.352;2022-08-21T02:11:31;93443.44;;;15.15
64470;BMP280;50854;48.538;14.352;2022-08-21T02:12:31;93447.41;;;15.22
64470;BMP280;50854;48.538;14.352;2022-08-21T02:13:32;93448.13;;;15.22
64470;BMP280;50854;48.538;14.352;2022-08-21T02:14:32;93439.50;;;15.09
64470;BMP280;50854;48.538;14.352;2022-08-21T02:15:32;93448.59;;;15.04
64470;BMP280;50854;48.538;14.352;2022-08-21T02:16:33;93446.22;;;15.08
64470;BMP280;50854;48.538;14.352;2022-08-21T02:17:41;93444.97;;;15.09
64470;BMP280;50854;48.538;14.352;2022-08-21T02:18:41;93440.94;;;15.10
64470;BMP280;50854;48.538;14.352;2022-08-21T02:19:42;93453.25;;;15.11
64470;BMP280;50854;48.538;14.352;2022-08-21T02:20:43;93442.38;;;15.11
64470;BMP280;50854;48.538;14.352;2022-08-21T02:21:44;93438.41;;;15.12
64470;BMP280;50854;48.538;14.352;2022-08-21T02:22:44;93438.94;;;15.10
64470;BMP280;50854;48.538;14.352;2022-08-21T02:23:44;93434.66;;;15.00
64470;BMP280;50854;48.538;14.352;2022-08-21T02:24:45;93437.56;;;15.02
64470;BMP280;50854;48.538;14.352;2022-08-21T02:25:45;93427.63;;;14.97
64470;BMP280;50854;48.538;14.352;2022-08-21T02:26:45;93429.03;;;14.98
64470;BMP280;50854;48.538;14.352;2022-08-21T02:27:46;93432.13;;;15.02
64470;BMP280;50854;48.538;14.352;2022-08-21T02:28:47;93432.25;;;15.04
64470;BMP280;50854;48.538;14.352;2022-08-21T02:29:48;93425.75;;;15.07
64470;BMP280;50854;48.538;14.352;2022-08-21T02:30:48;93437.34;;;15.07
64470;BMP280;50854;48.538;14.352;2022-08-21T02:31:48;93432.63;;;15.08
64470;BMP280;50854;48.538;14.352;2022-08-21T02:32:48;93432.97;;;15.12
64470;BMP280;50854;48.538;14.352;2022-08-21T02:33:49;93426.25;;;15.13
64470;BMP280;50854;48.538;14.352;2022-08-21T02:34:49;93430.75;;;15.10
64470;BMP280;50854;48.538;14.352;2022-08-21T02:35:50;93430.13;;;15.02
64470;BMP280;50854;48.538;14.352;2022-08-21T02:36:50;93419.25;;;15.02
64470;BMP280;50854;48.538;14.352;2022-08-21T02:38:51;93427.53;;;15.04
64470;BMP280;50854;48.538;14.352;2022-08-21T02:39:52;93425.97;;;15.01
64470;BMP280;50854;48.538;14.352;2022-08-21T02:40:52;93424.09;;;15.04
64470;BMP280;50854;48.538;14.352;2022-08-21T02:41:52;93425.75;;;15.07
64470;BMP280;50854;48.538;14.352;2022-08-21T02:42:53;93426.25;;;15.05
64470;BMP280;50854;48.538;14.352;2022-08-21T02:43:53;93424.28;;;15.06
64470;BMP280;50854;48.538;14.352;2022-08-21T02:44:53;93420.47;;;15.09
64470;BMP280;50854;48.538;14.352;2022-08-21T02:45:55;93421.75;;;15.08
64470;BMP280;50854;48.538;14.352;2022-08-21T02:46:55;93417.03;;;15.08
64470;BMP280;50854;48.538;14.352;2022-08-21T02:47:57;93425.91;;;15.09
64470;BMP280;50854;48.538;14.352;2022-08-21T02:48:57;93422.81;;;15.05
64470;BMP280;50854;48.538;14.352;2022-08-21T02:49:58;93419.56;;;15.06
64470;BMP280;50854;48.538;14.352;2022-08-21T02:51:08;93417.88;;;15.11
64470;BMP280;50854;48.538;14.352;2022-08-21T02:52:08;93427.53;;;15.04
64470;BMP280;50854;48.538;14.352;2022-08-21T02:53:10;93423.78;;;15.00
64470;BMP280;50854;48.538;14.352;2022-08-21T02:54:11;93422.09;;;15.04
64470;BMP280;50854;48.538;14.352;2022-08-21T02:55:11;93418.81;;;15.06
64470;BMP280;50854;48.538;14.352;2022-08-21T02:56:13;93422.09;;;15.04
64470;BMP280;50854;48.538;14.352;2022-08-21T02:57:14;93417.38;;;15.05
64470;BMP280;50854;48.538;14.352;2022-08-21T02:58:15;93421.06;;;15.00
64470;BMP280;50854;48.538;14.352;2022-08-21T02:59:16;93425.41;;;15.03
64470;BMP280;50854;48.538;14.352;2022-08-21T03:00:16;93420.53;;;15.01
64470;BMP280;50854;48.538;14.352;2022-08-21T03:01:17;93416.03;;;14.96
64470;BMP280;50854;48.538;14.352;2022-08-21T03:02:17;93423.13;;;14.91
64470;BMP280;50854;48.538;14.352;2022-08-21T03:03:17;93418.78;;;14.88
64470;BMP280;50854;48.538;14.352;2022-08-21T03:04:18;93417.81;;;14.93
64470;BMP280;50854;48.538;14.352;2022-08-21T03:05:19;93425.84;;;14.91
64470;BMP280;50854;48.538;14.352;2022-08-21T03:06:20;93428.72;;;14.93
64470;BMP280;50854;48.538;14.352;2022-08-21T03:07:21;93418.56;;;14.94
64470;BMP280;50854;48.538;14.352;2022-08-21T03:08:22;93427.44;;;14.95
64470;BMP280;50854;48.538;14.352;2022-08-21T03:09:23;93424.91;;;14.97
64470;BMP280;50854;48.538;14.352;2022-08-21T03:10:24;93426.50;;;15.00
64470;BMP280;50854;48.538;14.352;2022-08-21T03:11:24;93427.94;;;15.01
64470;BMP280;50854;48.538;14.352;2022-08-21T03:12:26;93427.53;;;15.04
64470;BMP280;50854;48.538;14.352;2022-08-21T03:13:26;93434.66;;;15.00
64470;BMP280;50854;48.538;14.352;2022-08-21T03:14:27;93433.56;;;15.03
64470;BMP280;50854;48.538;14.352;2022-08-21T03:15:28;93436.78;;;15.09
64470;BMP280;50854;48.538;14.352;2022-08-21T03:16:28;93432.63;;;15.08
64470;BMP280;50854;48.538;14.352;2022-08-21T03:17:29;93437.69;;;15.11
64470;BMP280;50854;48.538;14.352;2022-08-21T03:18:29;93434.53;;;15.15
64470;BMP280;50854;48.538;14.352;2022-08-21T03:19:29;93442.69;;;15.15
64470;BMP280;50854;48.538;14.352;2022-08-21T03:20:30;93442.56;;;15.13
64470;BMP280;50854;48.538;14.352;2022-08-21T03:21:32;93442.00;;;15.14
64470;BMP280;50854;48.538;14.352;2022-08-21T03:22:33;93438.41;;;15.12
64470;BMP280;50854;48.538;14.352;2022-08-21T03:23:33;93439.84;;;15.13
64470;BMP280;50854;48.538;14.352;2022-08-21T03:24:33;93442.38;;;15.11
64470;BMP280;50854;48.538;14.352;2022-08-21T03:25:34;93447.09;;;15.10
64470;BMP280;50854;48.538;14.352;2022-08-21T03:26:35;93440.22;;;15.09
64470;BMP280;50854;48.538;14.352;2022-08-21T03:27:35;93442.94;;;15.09
64470;BMP280;50854;48.538;14.352;2022-08-21T03:28:36;93436.78;;;15.09
64470;BMP280;50854;48.538;14.352;2022-08-21T03:29:36;93437.34;;;15.07
64470;BMP280;50854;48.538;14.352;2022-08-21T03:30:36;93439.16;;;15.05
64470;BMP280;50854;48.538;14.352;2022-08-21T03:31:37;93432.13;;;15.02
64470;BMP280;50854;48.538;14.352;2022-08-21T03:32:37;93436.50;;;14.97
64470;BMP280;50854;48.538;14.352;2022-08-21T03:33:37;93433.38;;;15.01
64470;BMP280;50854;48.538;14.352;2022-08-21T03:34:38;93431.22;;;14.99
64470;BMP280;50854;48.538;14.352;2022-08-21T03:35:38;93426.19;;;14.96
64470;BMP280;50854;48.538;14.352;2022-08-21T03:36:39;93427.63;;;14.97
64470;BMP280;50854;48.538;14.352;2022-08-21T03:37:39;93433.38;;;15.01
64470;BMP280;50854;48.538;14.352;2022-08-21T03:38:40;93427.94;;;15.01
64470;BMP280;50854;48.538;14.352;2022-08-21T03:39:40;93423.97;;;15.02
64470;BMP280;50854;48.538;14.352;2022-08-21T03:40:42;93437.38;;;15.00
64470;BMP280;50854;48.538;14.352;2022-08-21T03:41:42;93429.41;;;15.02
64470;BMP280;50854;48.538;14.352;2022-08-21T03:42:43;93430.66;;;15.01
64470;BMP280;50854;48.538;14.352;2022-08-21T03:43:45;93426.19;;;14.96
64470;BMP280;50854;48.538;14.352;2022-08-21T03:44:45;93418.88;;;14.98
64470;BMP280;50854;48.538;14.352;2022-08-21T03:45:46;93423.28;;;14.93
64470;BMP280;50854;48.538;14.352;2022-08-21T03:46:46;93427.22;;;15.00
64470;BMP280;50854;48.538;14.352;2022-08-21T03:47:59;93425.78;;;14.99
64470;BMP280;50854;48.538;14.352;2022-08-21T03:49:00;93420.75;;;14.96
64470;BMP280;50854;48.538;14.352;2022-08-21T03:50:01;93421.09;;;14.92
64470;BMP280;50854;48.538;14.352;2022-08-21T03:51:01;93427.44;;;14.95
64470;BMP280;50854;48.538;14.352;2022-08-21T03:52:02;93430.88;;;14.95
64470;BMP280;50854;48.538;14.352;2022-08-21T03:53:03;93429.44;;;14.94
64470;BMP280;50854;48.538;14.352;2022-08-21T03:54:04;93431.22;;;14.99
64470;BMP280;50854;48.538;14.352;2022-08-21T03:55:04;93436.84;;;15.01
64470;BMP280;50854;48.538;14.352;2022-08-21T03:56:05;93433.59;;;14.95
64470;BMP280;50854;48.538;14.352;2022-08-21T03:57:05;93431.22;;;14.99
64470;BMP280;50854;48.538;14.352;2022-08-21T03:58:06;93428.50;;;14.99
64470;BMP280;50854;48.538;14.352;2022-08-21T03:59:06;93434.13;;;15.01
64470;BMP280;50854;48.538;14.352;2022-08-21T04:00:07;93433.56;;;15.03
64470;BMP280;50854;48.538;14.352;2022-08-21T04:01:10;93429.72;;;15.06
64470;BMP280;50854;48.538;14.352;2022-08-21T04:02:10;93429.41;;;15.02
64470;BMP280;50854;48.538;14.352;2022-08-21T04:03:10;93433.56;;;15.03
64470;BMP280;50854;48.538;14.352;2022-08-21T04:04:11;93431.19;;;15.07
64470;BMP280;50854;48.538;14.352;2022-08-21T04:05:12;93433.34;;;15.08
64470;BMP280;50854;48.538;14.352;2022-08-21T04:06:12;93429.91;;;15.08
64470;BMP280;50854;48.538;14.352;2022-08-21T04:07:12;93437.69;;;15.11
64470;BMP280;50854;48.538;14.352;2022-08-21T04:08:13;93436.44;;;15.05
64470;BMP280;50854;48.538;14.352;2022-08-21T04:09:14;93433.00;;;15.04
64470;BMP280;50854;48.538;14.352;2022-08-21T04:10:14;93433.56;;;15.03
64470;BMP280;50854;48.538;14.352;2022-08-21T04:11:15;93435.91;;;15.06
64470;BMP280;50854;48.538;14.352;2022-08-21T04:12:16;93427.00;;;15.06
64470;BMP280;50854;48.538;14.352;2022-08-21T04:13:16;93434.06;;;15.09
64470;BMP280;50854;48.538;14.352;2022-08-21T04:14:16;93436.78;;;15.09
64470;BMP280;50854;48.538;14.352;2022-08-21T04:15:17;93435.84;;;15.14
64470;BMP280;50854;48.538;14.352;2022-08-21T04:16:17;93435.13;;;15.13
64470;BMP280;50854;48.538;14.352;2022-08-21T04:17:19;93437.47;;;15.17
64470;BMP280;50854;48.538;14.352;2022-08-21T04:18:19;93436.19;;;15.18
64470;BMP280;50854;48.538;14.352;2022-08-21T04:19:19;93433.63;;;15.20
64470;BMP280;50854;48.538;14.352;2022-08-21T04:20:21;93436.34;;;15.20
64470;BMP280;50854;48.538;14.352;2022-08-21T04:21:21;93436.66;;;15.24
64470;BMP280;50854;48.538;14.352;2022-08-21T04:22:22;93432.66;;;15.25
64470;BMP280;50854;48.538;14.352;2022-08-21T04:23:22;93439.56;;;15.26
64470;BMP280;50854;48.538;14.352;2022-08-21T04:24:22;93443.72;;;15.27
64470;BMP280;50854;48.538;14.352;2022-08-21T04:25:23;93442.28;;;15.26
64470;BMP280;50854;48.538;14.352;2022-08-21T04:26:25;93449.16;;;15.27
64470;BMP280;50854;48.538;14.352;2022-08-21T04:27:26;93438.44;;;15.29
64470;BMP280;50854;48.538;14.352;2022-08-21T04:28:26;93435.56;;;15.27
64470;BMP280;50854;48.538;14.352;2022-08-21T04:29:27;93448.78;;;15.31
64470;BMP280;50854;48.538;14.352;2022-08-21T04:30:28;93444.78;;;15.32
64470;BMP280;50854;48.538;14.352;2022-08-21T04:31:29;93446.94;;;15.33
64470;BMP280;50854;48.538;14.352;2022-08-21T04:32:29;93445.66;;;15.34
64470;BMP280;50854;48.538;14.352;2022-08-21T04:33:30;93445.09;;;15.36
64470;BMP280;50854;48.538;14.352;2022-08-21T04:34:31;93442.94;;;15.34
64470;BMP280;50854;48.538;14.352;2022-08-21T04:35:31;93453.28;;;15.36
64470;BMP280;50854;48.538;14.352;2022-08-21T04:36:32;93455.47;;;15.37
64470;BMP280;50854;48.538;14.352;2022-08-21T04:37:32;93451.44;;;15.38
64470;BMP280;50854;48.538;14.352;2022-08-21T04:38:33;93452.31;;;15.41
64470;BMP280;50854;48.538;14.352;2022-08-21T04:39:34;93454.50;;;15.42
64470;BMP280;50854;48.538;14.352;2022-08-21T04:40:34;93454.88;;;15.39
64470;BMP280;50854;48.538;14.352;2022-08-21T04:41:34;93454.50;;;15.42
64470;BMP280;50854;48.538;14.352;2022-08-21T04:42:41;93451.22;;;15.44
64470;BMP280;50854;48.538;14.352;2022-08-21T04:43:41;93452.50;;;15.43
64470;BMP280;50854;48.538;14.352;2022-08-21T04:44:42;93455.25;;;15.43
64470;BMP280;50854;48.538;14.352;2022-08-21T04:45:44;93448.16;;;15.40
64470;BMP280;50854;48.538;14.352;2022-08-21T04:46:44;93456.31;;;15.40
64470;BMP280;50854;48.538;14.352;2022-08-21T04:47:44;93455.03;;;15.41
64470;BMP280;50854;48.538;14.352;2022-08-21T04:48:45;93446.31;;;15.42
64470;BMP280;50854;48.538;14.352;2022-08-21T04:49:45;93456.66;;;15.44
64470;BMP280;50854;48.538;14.352;2022-08-21T04:50:49;93454.66;;;15.44
64470;BMP280;50854;48.538;14.352;2022-08-21T04:52:00;93457.38;;;15.44
64470;BMP280;50854;48.538;14.352;2022-08-21T04:53:00;93460.97;;;15.47
64470;BMP280;50854;48.538;14.352;2022-08-21T04:55:07;93459.16;;;15.49
64470;BMP280;50854;48.538;14.352;2022-08-21T04:56:09;93458.25;;;15.47
64470;BMP280;50854;48.538;14.352;2022-08-21T04:57:11;93465.31;;;15.50
64470;BMP280;50854;48.538;14.352;2022-08-21T04:58:11;93464.44;;;15.47
64470;BMP280;50854;48.538;14.352;2022-08-21T04:59:17;93459.16;;;15.49
64470;BMP280;50854;48.538;14.352;2022-08-21T05:00:19;93465.19;;;15.48
64470;BMP280;50854;48.538;14.352;2022-08-21T05:01:21;93462.25;;;15.46
64470;BMP280;50854;48.538;14.352;2022-08-21T05:02:22;93466.59;;;15.49
64470;BMP280;50854;48.538;14.352;2022-08-21T05:03:22;93468.03;;;15.50
64470;BMP280;50854;48.538;14.352;2022-08-21T05:04:24;93467.91;;;15.48
64470;BMP280;50854;48.538;14.352;2022-08-21T05:05:25;93461.72;;;15.47
64470;BMP280;50854;48.538;14.352;2022-08-21T05:06:28;93468.63;;;15.48
64470;BMP280;50854;48.538;14.352;2022-08-21T05:07:30;93459.16;;;15.49
64470;BMP280;50854;48.538;14.352;2022-08-21T05:08:31;93467.66;;;15.53
64470;BMP280;50854;48.538;14.352;2022-08-21T05:09:32;93470.19;;;15.51
64470;BMP280;50854;48.538;14.352;2022-08-21T05:10:33;93467.09;;;15.55
64470;BMP280;50854;48.538;14.352;2022-08-21T05:11:34;93467.66;;;15.53
64470;BMP280;50854;48.538;14.352;2022-08-21T05:12:34;93473.25;;;15.55
64470;BMP280;50854;48.538;14.352;2022-08-21T05:13:35;93467.44;;;15.59
64470;BMP280;50854;48.538;14.352;2022-08-21T05:14:36;93465.44;;;15.60
64470;BMP280;50854;48.538;14.352;2022-08-21T05:15:36;93473.59;;;15.60
64470;BMP280;50854;48.538;14.352;2022-08-21T05:16:37;93475.03;;;15.61
64470;BMP280;50854;48.538;14.352;2022-08-21T05:17:38;93483.91;;;15.61
64470;BMP280;50854;48.538;14.352;2022-08-21T05:18:38;93471.75;;;15.62
64470;BMP280;50854;48.538;14.352;2022-08-21T05:19:38;93484.28;;;15.65
64470;BMP280;50854;48.538;14.352;2022-08-21T05:20:39;93487.84;;;15.68
64470;BMP280;50854;48.538;14.352;2022-08-21T05:21:44;93483.88;;;15.69
64470;BMP280;50854;48.538;14.352;2022-08-21T05:22:45;93481.44;;;15.73
64470;BMP280;50854;48.538;14.352;2022-08-21T05:23:45;93486.38;;;15.74
64470;BMP280;50854;48.538;14.352;2022-08-21T05:24:46;93479.63;;;15.75
64470;BMP280;50854;48.538;14.352;2022-08-21T05:25:46;93488.53;;;15.76
64470;BMP280;50854;48.538;14.352;2022-08-21T05:26:46;93484.38;;;15.75
64470;BMP280;50854;48.538;14.352;2022-08-21T05:27:46;93488.38;;;15.74
64470;BMP280;50854;48.538;14.352;2022-08-21T05:28:47;93482.50;;;15.77
64470;BMP280;50854;48.538;14.352;2022-08-21T05:29:47;93481.97;;;15.79
64470;BMP280;50854;48.538;14.352;2022-08-21T05:30:47;93481.41;;;15.80
64470;BMP280;50854;48.538;14.352;2022-08-21T05:31:47;93487.41;;;15.79
64470;BMP280;50854;48.538;14.352;2022-08-21T05:32:48;93484.13;;;15.80
64470;BMP280;50854;48.538;14.352;2022-08-21T05:33:48;93484.84;;;15.81
64470;BMP280;50854;48.538;14.352;2022-08-21T05:34:49;93478.81;;;15.82
64470;BMP280;50854;48.538;14.352;2022-08-21T05:35:50;93483.72;;;15.84
64470;BMP280;50854;48.538;14.352;2022-08-21T05:36:51;93492.19;;;15.88
64470;BMP280;50854;48.538;14.352;2022-08-21T05:37:52;93483.91;;;15.86
64470;BMP280;50854;48.538;14.352;2022-08-21T05:38:52;93483.50;;;15.90
64470;BMP280;50854;48.538;14.352;2022-08-21T05:39:52;93488.75;;;15.87
64470;BMP280;50854;48.538;14.352;2022-08-21T05:40:52;93495.13;;;15.90
64470;BMP280;50854;48.538;14.352;2022-08-21T05:41:53;93489.84;;;15.92
64470;BMP280;50854;48.538;14.352;2022-08-21T05:42:53;93488.53;;;15.93
64470;BMP280;50854;48.538;14.352;2022-08-21T05:43:54;93489.66;;;15.90
64470;BMP280;50854;48.538;14.352;2022-08-21T05:44:54;93492.94;;;15.88
64470;BMP280;50854;48.538;14.352;2022-08-21T05:45:54;93500.38;;;15.88
64470;BMP280;50854;48.538;14.352;2022-08-21T05:46:55;93496.94;;;15.87
64470;BMP280;50854;48.538;14.352;2022-08-21T05:47:55;93496.94;;;15.87
64470;BMP280;50854;48.538;14.352;2022-08-21T05:48:55;93499.09;;;15.89
64470;BMP280;50854;48.538;14.352;2022-08-21T05:49:55;93495.13;;;15.90
64470;BMP280;50854;48.538;14.352;2022-08-21T05:50:56;93501.28;;;15.91
64470;BMP280;50854;48.538;14.352;2022-08-21T05:51:56;93499.84;;;15.90
64470;BMP280;50854;48.538;14.352;2022-08-21T05:52:56;93498.56;;;15.91
64470;BMP280;50854;48.538;14.352;2022-08-21T05:53:57;93500.00;;;15.92
64470;BMP280;50854;48.538;14.352;2022-08-21T05:54:57;93492.94;;;15.88
64470;BMP280;50854;48.538;14.352;2022-08-21T05:55:57;93490.94;;;15.89
64470;BMP280;50854;48.538;14.352;2022-08-21T05:56:58;93491.34;;;15.85
64470;BMP280;50854;48.538;14.352;2022-08-21T05:57:58;93492.63;;;15.84
64470;BMP280;50854;48.538;14.352;2022-08-21T05:58:59;93496.25;;;15.87
64470;BMP280;50854;48.538;14.352;2022-08-21T05:59:59;93497.34;;;15.84
64470;BMP280;50854;48.538;14.352;2022-08-21T06:01:00;93495.25;;;15.75
64470;BMP280;50854;48.538;14.352;2022-08-21T06:02:02;93497.75;;;15.80
64470;BMP280;50854;48.538;14.352;2022-08-21T06:03:02;93503.53;;;15.84
64470;BMP280;50854;48.538;14.352;2022-08-21T06:04:03;93502.81;;;15.84
64470;BMP280;50854;48.538;14.352;2022-08-21T06:05:03;93498.38;;;15.88
64470;BMP280;50854;48.538;14.352;2022-08-21T06:06:04;93494.41;;;15.90
64470;BMP280;50854;48.538;14.352;2022-08-21T06:07:04;93494.56;;;15.92
64470;BMP280;50854;48.538;14.352;2022-08-21T06:08:04;93492.56;;;15.92
64470;BMP280;50854;48.538;14.352;2022-08-21T06:09:05;93490.88;;;15.97
64470;BMP280;50854;48.538;14.352;2022-08-21T06:10:05;93492.09;;;16.03
64470;BMP280;50854;48.538;14.352;2022-08-21T06:11:06;93499.31;;;16.08
64470;BMP280;50854;48.538;14.352;2022-08-21T06:12:08;93488.56;;;16.10
64470;BMP280;50854;48.538;14.352;2022-08-21T06:13:09;93493.84;;;16.08
64470;BMP280;50854;48.538;14.352;2022-08-21T06:14:09;93487.66;;;16.08
64470;BMP280;50854;48.538;14.352;2022-08-21T06:15:09;93494.00;;;16.10
64470;BMP280;50854;48.538;14.352;2022-08-21T06:16:11;93496.22;;;16.04
64470;BMP280;50854;48.538;14.352;2022-08-21T06:17:12;93490.00;;;16.11
64470;BMP280;50854;48.538;14.352;2022-08-21T06:18:13;93492.28;;;16.15
64470;BMP280;50854;48.538;14.352;2022-08-21T06:19:14;93489.19;;;16.18
64470;BMP280;50854;48.538;14.352;2022-08-21T06:20:14;93485.34;;;16.22
64470;BMP280;50854;48.538;14.352;2022-08-21T06:21:14;93500.25;;;16.20
64470;BMP280;50854;48.538;14.352;2022-08-21T06:22:15;93494.25;;;16.22
64470;BMP280;50854;48.538;14.352;2022-08-21T06:23:15;93497.84;;;16.25
64470;BMP280;50854;48.538;14.352;2022-08-21T06:24:15;93499.13;;;16.24
64470;BMP280;50854;48.538;14.352;2022-08-21T06:25:16;93494.41;;;16.24
64470;BMP280;50854;48.538;14.352;2022-08-21T06:26:16;93500.41;;;16.23
64470;BMP280;50854;48.538;14.352;2022-08-21T06:27:16;93488.94;;;16.24
64470;BMP280;50854;48.538;14.352;2022-08-21T06:28:17;93495.13;;;16.25
64470;BMP280;50854;48.538;14.352;2022-08-21T06:29:18;93495.13;;;16.25
64470;BMP280;50854;48.538;14.352;2022-08-21T06:30:19;93492.41;;;16.25
64470;BMP280;50854;48.538;14.352;2022-08-21T06:31:21;93500.56;;;16.25
64470;BMP280;50854;48.538;14.352;2022-08-21T06:32:21;93498.41;;;16.23
64470;BMP280;50854;48.538;14.352;2022-08-21T06:33:22;93503.47;;;16.27
64470;BMP280;50854;48.538;14.352;2022-08-21T06:34:22;93497.28;;;16.26
64470;BMP280;50854;48.538;14.352;2022-08-21T06:35:22;93499.28;;;16.26
64470;BMP280;50854;48.538;14.352;2022-08-21T06:36:24;93493.84;;;16.26
64470;BMP280;50854;48.538;14.352;2022-08-21T06:37:24;93495.13;;;16.25
64470;BMP280;50854;48.538;14.352;2022-08-21T06:38:24;93498.00;;;16.27
64470;BMP280;50854;48.538;14.352;2022-08-21T06:39:25;93496.88;;;16.30
64470;BMP280;50854;48.538;14.352;2022-08-21T06:40:26;93499.06;;;16.31
64470;BMP280;50854;48.538;14.352;2022-08-21T06:41:26;93496.56;;;16.26
64470;BMP280;50854;48.538;14.352;2022-08-21T06:42:27;93498.50;;;16.33
64470;BMP280;50854;48.538;14.352;2022-08-21T06:43:28;93502.66;;;16.34
64470;BMP280;50854;48.538;14.352;2022-08-21T06:44:29;93497.94;;;16.34
64470;BMP280;50854;48.538;14.352;2022-08-21T06:45:30;93491.28;;;16.28
64470;BMP280;50854;48.538;14.352;2022-08-21T06:46:31;93498.31;;;16.31
64470;BMP280;50854;48.538;14.352;2022-08-21T06:47:31;93497.03;;;16.32
64470;BMP280;50854;48.538;14.352;2022-08-21T06:48:31;93495.75;;;16.33
64470;BMP280;50854;48.538;14.352;2022-08-21T06:49:33;93491.75;;;16.34
64470;BMP280;50854;48.538;14.352;2022-08-21T06:50:33;93495.91;;;16.35
64470;BMP280;50854;48.538;14.352;2022-08-21T06:51:34;93498.66;;;16.35
64470;BMP280;50854;48.538;14.352;2022-08-21T06:52:35;93496.25;;;16.39
64470;BMP280;50854;48.538;14.352;2022-08-21T06:53:35;93498.25;;;16.38
64470;BMP280;50854;48.538;14.352;2022-08-21T06:54:36;93498.97;;;16.39
64470;BMP280;50854;48.538;14.352;2022-08-21T06:55:36;93496.41;;;16.41
64470;BMP280;50854;48.538;14.352;2022-08-21T06:56:37;93498.56;;;16.42
64470;BMP280;50854;48.538;14.352;2022-08-21T06:57:38;93502.41;;;16.39
64470;BMP280;50854;48.538;14.352;2022-08-21T06:58:38;93496.41;;;16.41
64470;BMP280;50854;48.538;14.352;2022-08-21T06:59:38;93496.41;;;16.41
64470;BMP280;50854;48.538;14.352;2022-08-21T07:00:40;93494.78;;;16.38
64470;BMP280;50854;48.538;14.352;2022-08-21T07:01:40;93496.41;;;16.41
64470;BMP280;50854;48.538;14.352;2022-08-21T07:02:41;93496.72;;;16.45
64470;BMP280;50854;48.538;14.352;2022-08-21T07:03:42;93499.44;;;16.45
64470;BMP280;50854;48.538;14.352;2022-08-21T07:04:43;93499.75;;;16.49
64470;BMP280;50854;48.538;14.352;2022-08-21T07:05:43;93490.13;;;16.48
64470;BMP280;50854;48.538;14.352;2022-08-21T07:06:43;93491.41;;;16.47
64470;BMP280;50854;48.538;14.352;2022-08-21T07:07:44;93495.75;;;16.50
64470;BMP280;50854;48.538;14.352;2022-08-21T07:08:45;93491.72;;;16.51
64470;BMP280;50854;48.538;14.352;2022-08-21T07:09:45;93485.00;;;16.52
64470;BMP280;50854;48.538;14.352;2022-08-21T07:10:46;93494.78;;;16.55
64470;BMP280;50854;48.538;14.352;2022-08-21T07:11:47;93498.38;;;16.58
64470;BMP280;50854;48.538;14.352;2022-08-21T07:12:50;93497.41;;;16.63
64470;BMP280;50854;48.538;14.352;2022-08-21T07:13:51;93497.16;;;16.68
64470;BMP280;50854;48.538;14.352;2022-08-21T07:14:52;93494.91;;;16.74
64470;BMP280;50854;48.538;14.352;2022-08-21T07:15:52;93495.00;;;16.67
64470;BMP280;50854;48.538;14.352;2022-08-21T07:16:53;93495.16;;;16.69
64470;BMP280;50854;48.538;14.352;2022-08-21T07:17:53;93499.22;;;16.77
64470;BMP280;50854;48.538;14.352;2022-08-21T07:18:54;93504.69;;;16.77
64470;BMP280;50854;48.538;14.352;2022-08-21T07:19:54;93500.34;;;16.74
64470;BMP280;50854;48.538;14.352;2022-08-21T07:20:54;93497.38;;;16.80
64470;BMP280;50854;48.538;14.352;2022-08-21T07:21:56;93500.16;;;16.90
64470;BMP280;50854;48.538;14.352;2022-08-21T07:22:57;93504.38;;;17.00
64470;BMP280;50854;48.538;14.352;2022-08-21T07:23:59;93505.41;;;17.05
64470;BMP280;50854;48.538;14.352;2022-08-21T07:24:59;93504.41;;;17.10
64470;BMP280;50854;48.538;14.352;2022-08-21T07:25:59;93513.06;;;17.16
64470;BMP280;50854;48.538;14.352;2022-08-21T07:27:00;93508.38;;;17.26
64470;BMP280;50854;48.538;14.352;2022-08-21T07:28:00;93511.56;;;17.32
64470;BMP280;50854;48.538;14.352;2022-08-21T07:29:01;93508.56;;;17.38
64470;BMP280;50854;48.538;14.352;2022-08-21T07:30:01;93499.94;;;17.41
64470;BMP280;50854;48.538;14.352;2022-08-21T07:31:02;93501.13;;;17.48
64470;BMP280;50854;48.538;14.352;2022-08-21T07:32:03;93508.91;;;17.52